Fallon Colony, Nevada
Current Conditions -  °F | °C
As of 11:56 PM on Thursday 18 Dec 2014 (Local Time) from KNFL Reporting Station
Clear Clear  
Wind Chill: 32°   Ceiling: Unl
Heat Index: 38°   Visibility: 10mi
Dew Point: 28°   Wind: 8mph
Humidity: 68%   Direction: 210°SSW
Pressure: 30.13"   Gusts: NA
Location:  39.5809°N, 118.333°W
Report Text: KNFL 190756Z AUTO 21007KT 10SM CLR 03/M02 A3013 RMK AO2 SLP168 T00331022 401001028
Loading
Personal Weather Stations






























Interactive Weather Map New forecast layout! Learn more

10-Day Weather Forecast

Advertisements
Track Severe Weather on mobile